sensor_id;sensor_type;location;lat;lon;timestamp;temperature;humidity
22114;DHT22;11223;49.968;9.062;2023-11-18T00:01:03;4.80;99.90
22114;DHT22;11223;49.968;9.062;2023-11-18T00:03:28;4.70;99.90
22114;DHT22;11223;49.968;9.062;2023-11-18T00:05:54;4.70;99.90
22114;DHT22;11223;49.968;9.062;2023-11-18T00:08:19;4.70;99.90
22114;DHT22;11223;49.968;9.062;2023-11-18T00:10:45;4.70;99.90
22114;DHT22;11223;49.968;9.062;2023-11-18T00:13:10;4.70;99.90
22114;DHT22;11223;49.968;9.062;2023-11-18T00:15:36;4.70;99.90
22114;DHT22;11223;49.968;9.062;2023-11-18T00:18:01;4.70;99.90
22114;DHT22;11223;49.968;9.062;2023-11-18T00:20:27;4.70;99.90
22114;DHT22;11223;49.968;9.062;2023-11-18T00:22:52;4.70;99.90
22114;DHT22;11223;49.968;9.062;2023-11-18T00:25:18;4.70;99.90
22114;DHT22;11223;49.968;9.062;2023-11-18T00:27:44;4.80;99.90
22114;DHT22;11223;49.968;9.062;2023-11-18T00:30:09;4.70;99.90
22114;DHT22;11223;49.968;9.062;2023-11-18T00:32:36;4.80;99.90
22114;DHT22;11223;49.968;9.062;2023-11-18T00:35:02;4.90;99.90
22114;DHT22;11223;49.968;9.062;2023-11-18T00:37:30;4.90;99.90
22114;DHT22;11223;49.968;9.062;2023-11-18T00:39:56;4.90;99.90
22114;DHT22;11223;49.968;9.062;2023-11-18T00:42:22;4.90;99.90
22114;DHT22;11223;49.968;9.062;2023-11-18T00:44:48;4.90;99.90
22114;DHT22;11223;49.968;9.062;2023-11-18T00:47:13;4.90;99.90
22114;DHT22;11223;49.968;9.062;2023-11-18T00:49:39;5.00;99.90
22114;DHT22;11223;49.968;9.062;2023-11-18T00:52:05;4.90;99.90
22114;DHT22;11223;49.968;9.062;2023-11-18T00:54:30;5.00;99.90
22114;DHT22;11223;49.968;9.062;2023-11-18T00:56:56;5.00;99.90
22114;DHT22;11223;49.968;9.062;2023-11-18T00:59:21;5.00;99.90
22114;DHT22;11223;49.968;9.062;2023-11-18T01:01:47;5.10;99.90
22114;DHT22;11223;49.968;9.062;2023-11-18T01:04:14;5.10;99.90
22114;DHT22;11223;49.968;9.062;2023-11-18T01:06:39;5.10;99.90
22114;DHT22;11223;49.968;9.062;2023-11-18T01:09:05;5.00;99.90
22114;DHT22;11223;49.968;9.062;2023-11-18T01:11:32;5.10;99.90
22114;DHT22;11223;49.968;9.062;2023-11-18T01:13:58;5.10;99.90
22114;DHT22;11223;49.968;9.062;2023-11-18T01:16:23;5.00;99.90
22114;DHT22;11223;49.968;9.062;2023-11-18T01:18:49;5.10;99.90
22114;DHT22;11223;49.968;9.062;2023-11-18T01:21:15;5.10;99.90
22114;DHT22;11223;49.968;9.062;2023-11-18T01:23:42;5.10;99.90
22114;DHT22;11223;49.968;9.062;2023-11-18T01:26:08;5.10;99.90
22114;DHT22;11223;49.968;9.062;2023-11-18T01:28:34;5.10;99.90
22114;DHT22;11223;49.968;9.062;2023-11-18T01:31:03;5.10;99.90
22114;DHT22;11223;49.968;9.062;2023-11-18T01:33:29;5.10;99.90
22114;DHT22;11223;49.968;9.062;2023-11-18T01:35:55;5.10;99.90
22114;DHT22;11223;49.968;9.062;2023-11-18T01:38:20;5.10;99.90
22114;DHT22;11223;49.968;9.062;2023-11-18T01:40:46;5.00;99.90
22114;DHT22;11223;49.968;9.062;2023-11-18T01:43:11;5.00;99.90
22114;DHT22;11223;49.968;9.062;2023-11-18T01:45:42;4.90;99.90
22114;DHT22;11223;49.968;9.062;2023-11-18T01:48:08;4.90;99.90
22114;DHT22;11223;49.968;9.062;2023-11-18T01:50:36;4.90;99.90
22114;DHT22;11223;49.968;9.062;2023-11-18T01:53:03;4.80;99.90
22114;DHT22;11223;49.968;9.062;2023-11-18T01:55:28;4.90;99.90
22114;DHT22;11223;49.968;9.062;2023-11-18T01:57:54;4.80;99.90
22114;DHT22;11223;49.968;9.062;2023-11-18T02:00:22;4.70;99.90
22114;DHT22;11223;49.968;9.062;2023-11-18T02:02:48;4.80;99.90
22114;DHT22;11223;49.968;9.062;2023-11-18T02:05:14;4.80;99.90
22114;DHT22;11223;49.968;9.062;2023-11-18T02:07:40;4.80;99.90
22114;DHT22;11223;49.968;9.062;2023-11-18T02:10:06;4.80;99.90
22114;DHT22;11223;49.968;9.062;2023-11-18T02:15:06;4.80;99.90
22114;DHT22;11223;49.968;9.062;2023-11-18T02:17:37;4.70;99.90
22114;DHT22;11223;49.968;9.062;2023-11-18T02:20:03;4.70;99.90
22114;DHT22;11223;49.968;9.062;2023-11-18T02:22:35;4.70;99.90
22114;DHT22;11223;49.968;9.062;2023-11-18T02:25:01;4.60;99.90
22114;DHT22;11223;49.968;9.062;2023-11-18T02:27:31;4.60;99.90
22114;DHT22;11223;49.968;9.062;2023-11-18T02:29:57;4.70;99.90
22114;DHT22;11223;49.968;9.062;2023-11-18T02:35:18;4.80;99.90
22114;DHT22;11223;49.968;9.062;2023-11-18T02:37:46;4.80;99.90
22114;DHT22;11223;49.968;9.062;2023-11-18T02:40:15;4.80;99.90
22114;DHT22;11223;49.968;9.062;2023-11-18T02:42:42;4.80;99.90
22114;DHT22;11223;49.968;9.062;2023-11-18T02:45:08;4.90;99.90
22114;DHT22;11223;49.968;9.062;2023-11-18T02:47:37;4.90;99.90
22114;DHT22;11223;49.968;9.062;2023-11-18T02:50:05;4.90;99.90
22114;DHT22;11223;49.968;9.062;2023-11-18T02:52:31;4.90;99.90
22114;DHT22;11223;49.968;9.062;2023-11-18T02:54:58;4.90;99.90
22114;DHT22;11223;49.968;9.062;2023-11-18T02:57:23;4.90;99.90
22114;DHT22;11223;49.968;9.062;2023-11-18T02:59:49;5.00;99.90
22114;DHT22;11223;49.968;9.062;2023-11-18T03:02:15;4.90;99.90
22114;DHT22;11223;49.968;9.062;2023-11-18T03:04:40;4.90;99.90
22114;DHT22;11223;49.968;9.062;2023-11-18T03:07:10;4.90;99.90
22114;DHT22;11223;49.968;9.062;2023-11-18T03:09:35;4.90;99.90
22114;DHT22;11223;49.968;9.062;2023-11-18T03:12:03;4.90;99.90
22114;DHT22;11223;49.968;9.062;2023-11-18T03:14:29;4.90;99.90
22114;DHT22;11223;49.968;9.062;2023-11-18T03:16:54;4.90;99.90
22114;DHT22;11223;49.968;9.062;2023-11-18T03:19:21;4.90;99.90
22114;DHT22;11223;49.968;9.062;2023-11-18T03:21:52;4.80;99.90
22114;DHT22;11223;49.968;9.062;2023-11-18T03:24:18;4.80;99.90
22114;DHT22;11223;49.968;9.062;2023-11-18T03:26:44;4.80;99.90
22114;DHT22;11223;49.968;9.062;2023-11-18T03:29:09;4.80;99.90
22114;DHT22;11223;49.968;9.062;2023-11-18T03:31:36;4.80;99.90
22114;DHT22;11223;49.968;9.062;2023-11-18T03:34:02;4.80;99.90
22114;DHT22;11223;49.968;9.062;2023-11-18T03:36:27;4.80;99.90
22114;DHT22;11223;49.968;9.062;2023-11-18T03:38:53;4.80;99.90
22114;DHT22;11223;49.968;9.062;2023-11-18T03:41:18;4.80;99.90
22114;DHT22;11223;49.968;9.062;2023-11-18T03:43:44;4.80;99.90
22114;DHT22;11223;49.968;9.062;2023-11-18T03:46:10;4.80;99.90
22114;DHT22;11223;49.968;9.062;2023-11-18T03:48:36;4.80;99.90
22114;DHT22;11223;49.968;9.062;2023-11-18T03:51:01;4.80;99.90
22114;DHT22;11223;49.968;9.062;2023-11-18T03:53:28;4.80;99.90
22114;DHT22;11223;49.968;9.062;2023-11-18T03:55:54;4.80;99.90
22114;DHT22;11223;49.968;9.062;2023-11-18T03:58:19;4.80;99.90
22114;DHT22;11223;49.968;9.062;2023-11-18T04:00:45;4.70;99.90
22114;DHT22;11223;49.968;9.062;2023-11-18T04:03:10;4.70;99.90
22114;DHT22;11223;49.968;9.062;2023-11-18T04:05:37;4.70;99.90
22114;DHT22;11223;49.968;9.062;2023-11-18T04:08:04;4.70;99.90
22114;DHT22;11223;49.968;9.062;2023-11-18T04:10:30;4.70;99.90
22114;DHT22;11223;49.968;9.062;2023-11-18T04:12:55;4.70;99.90
22114;DHT22;11223;49.968;9.062;2023-11-18T04:15:21;4.70;99.90
22114;DHT22;11223;49.968;9.062;2023-11-18T04:17:46;4.70;99.90
22114;DHT22;11223;49.968;9.062;2023-11-18T04:20:12;4.70;99.90
22114;DHT22;11223;49.968;9.062;2023-11-18T04:22:40;4.60;99.90
22114;DHT22;11223;49.968;9.062;2023-11-18T04:25:10;4.70;99.90
22114;DHT22;11223;49.968;9.062;2023-11-18T04:27:36;4.70;99.90
22114;DHT22;11223;49.968;9.062;2023-11-18T04:30:02;4.70;99.90
22114;DHT22;11223;49.968;9.062;2023-11-18T04:32:27;4.70;99.90
22114;DHT22;11223;49.968;9.062;2023-11-18T04:34:53;4.70;99.90
22114;DHT22;11223;49.968;9.062;2023-11-18T04:37:18;4.70;99.90
22114;DHT22;11223;49.968;9.062;2023-11-18T04:39:44;4.70;99.90
22114;DHT22;11223;49.968;9.062;2023-11-18T04:42:09;4.70;99.90
22114;DHT22;11223;49.968;9.062;2023-11-18T04:44:35;4.70;99.90
22114;DHT22;11223;49.968;9.062;2023-11-18T04:47:00;4.70;99.90
22114;DHT22;11223;49.968;9.062;2023-11-18T04:49:27;4.70;99.90
22114;DHT22;11223;49.968;9.062;2023-11-18T04:51:52;4.70;99.90
22114;DHT22;11223;49.968;9.062;2023-11-18T04:54:18;4.70;99.90
22114;DHT22;11223;49.968;9.062;2023-11-18T04:56:44;4.70;99.90
22114;DHT22;11223;49.968;9.062;2023-11-18T04:59:10;4.70;99.90
22114;DHT22;11223;49.968;9.062;2023-11-18T05:01:35;4.70;99.90
22114;DHT22;11223;49.968;9.062;2023-11-18T05:04:03;4.60;99.90
22114;DHT22;11223;49.968;9.062;2023-11-18T05:06:28;4.60;99.90
22114;DHT22;11223;49.968;9.062;2023-11-18T05:08:54;4.60;99.90
22114;DHT22;11223;49.968;9.062;2023-11-18T05:11:19;4.50;99.90
22114;DHT22;11223;49.968;9.062;2023-11-18T05:13:45;4.50;99.90
22114;DHT22;11223;49.968;9.062;2023-11-18T05:16:11;4.50;99.90
22114;DHT22;11223;49.968;9.062;2023-11-18T05:18:36;4.40;99.90
22114;DHT22;11223;49.968;9.062;2023-11-18T05:21:02;4.40;99.90
22114;DHT22;11223;49.968;9.062;2023-11-18T05:23:30;4.40;99.90
22114;DHT22;11223;49.968;9.062;2023-11-18T05:25:56;4.40;99.90
22114;DHT22;11223;49.968;9.062;2023-11-18T05:28:21;4.40;99.90
22114;DHT22;11223;49.968;9.062;2023-11-18T05:30:47;4.40;99.90
22114;DHT22;11223;49.968;9.062;2023-11-18T05:33:13;4.40;99.90
22114;DHT22;11223;49.968;9.062;2023-11-18T05:35:45;4.30;99.90
22114;DHT22;11223;49.968;9.062;2023-11-18T05:38:15;4.30;99.90
22114;DHT22;11223;49.968;9.062;2023-11-18T05:40:44;4.30;99.90
22114;DHT22;11223;49.968;9.062;2023-11-18T05:43:19;4.30;99.90
22114;DHT22;11223;49.968;9.062;2023-11-18T05:45:46;4.30;99.90
22114;DHT22;11223;49.968;9.062;2023-11-18T05:48:31;4.30;99.90
22114;DHT22;11223;49.968;9.062;2023-11-18T05:50:57;4.30;99.90
22114;DHT22;11223;49.968;9.062;2023-11-18T05:53:22;4.30;99.90
22114;DHT22;11223;49.968;9.062;2023-11-18T05:55:48;4.30;99.90
22114;DHT22;11223;49.968;9.062;2023-11-18T05:58:15;4.30;99.90
22114;DHT22;11223;49.968;9.062;2023-11-18T06:00:40;4.40;99.90
22114;DHT22;11223;49.968;9.062;2023-11-18T06:03:06;4.30;99.90
22114;DHT22;11223;49.968;9.062;2023-11-18T06:05:31;4.30;99.90
22114;DHT22;11223;49.968;9.062;2023-11-18T06:08:00;4.40;99.90
22114;DHT22;11223;49.968;9.062;2023-11-18T06:10:25;4.40;99.90
22114;DHT22;11223;49.968;9.062;2023-11-18T06:12:51;4.40;99.90
22114;DHT22;11223;49.968;9.062;2023-11-18T06:15:16;4.40;99.90
22114;DHT22;11223;49.968;9.062;2023-11-18T06:17:44;4.40;99.90
22114;DHT22;11223;49.968;9.062;2023-11-18T06:20:09;4.40;99.90
22114;DHT22;11223;49.968;9.062;2023-11-18T06:22:35;4.40;99.90
22114;DHT22;11223;49.968;9.062;2023-11-18T06:25:01;4.40;99.90
22114;DHT22;11223;49.968;9.062;2023-11-18T06:27:27;4.40;99.90
22114;DHT22;11223;49.968;9.062;2023-11-18T06:29:53;4.40;99.90
22114;DHT22;11223;49.968;9.062;2023-11-18T06:32:20;4.40;99.90
22114;DHT22;11223;49.968;9.062;2023-11-18T06:34:45;4.50;99.90
22114;DHT22;11223;49.968;9.062;2023-11-18T06:37:11;4.50;99.90
22114;DHT22;11223;49.968;9.062;2023-11-18T06:39:40;4.50;99.90
22114;DHT22;11223;49.968;9.062;2023-11-18T06:42:06;4.50;99.90
22114;DHT22;11223;49.968;9.062;2023-11-18T06:44:37;4.50;99.90
22114;DHT22;11223;49.968;9.062;2023-11-18T06:47:02;4.50;99.90
22114;DHT22;11223;49.968;9.062;2023-11-18T06:49:28;4.50;99.90
22114;DHT22;11223;49.968;9.062;2023-11-18T06:51:54;4.60;99.90
22114;DHT22;11223;49.968;9.062;2023-11-18T06:54:20;4.60;99.90
22114;DHT22;11223;49.968;9.062;2023-11-18T06:56:45;4.60;99.90
22114;DHT22;11223;49.968;9.062;2023-11-18T06:59:11;4.70;99.90
22114;DHT22;11223;49.968;9.062;2023-11-18T07:01:40;4.70;99.90
22114;DHT22;11223;49.968;9.062;2023-11-18T07:04:09;4.70;99.90
22114;DHT22;11223;49.968;9.062;2023-11-18T07:06:34;4.70;99.90
22114;DHT22;11223;49.968;9.062;2023-11-18T07:09:04;4.80;99.90
22114;DHT22;11223;49.968;9.062;2023-11-18T07:11:34;4.80;99.90
22114;DHT22;11223;49.968;9.062;2023-11-18T07:14:00;4.70;99.90
22114;DHT22;11223;49.968;9.062;2023-11-18T07:16:26;4.70;99.90
22114;DHT22;11223;49.968;9.062;2023-11-18T07:18:51;4.70;99.90
22114;DHT22;11223;49.968;9.062;2023-11-18T07:21:17;4.70;99.90
22114;DHT22;11223;49.968;9.062;2023-11-18T07:23:43;4.70;99.90
22114;DHT22;11223;49.968;9.062;2023-11-18T07:26:08;4.70;99.90
22114;DHT22;11223;49.968;9.062;2023-11-18T07:28:35;4.70;99.90
22114;DHT22;11223;49.968;9.062;2023-11-18T07:31:01;4.70;99.90
22114;DHT22;11223;49.968;9.062;2023-11-18T07:33:30;4.80;99.90
22114;DHT22;11223;49.968;9.062;2023-11-18T07:35:56;4.80;99.90
22114;DHT22;11223;49.968;9.062;2023-11-18T07:38:22;4.80;99.90
22114;DHT22;11223;49.968;9.062;2023-11-18T07:40:47;4.90;99.90
22114;DHT22;11223;49.968;9.062;2023-11-18T07:43:13;4.90;99.90
22114;DHT22;11223;49.968;9.062;2023-11-18T07:45:39;4.90;99.90
22114;DHT22;11223;49.968;9.062;2023-11-18T07:50:36;4.90;99.90
22114;DHT22;11223;49.968;9.062;2023-11-18T07:53:02;4.90;99.90
22114;DHT22;11223;49.968;9.062;2023-11-18T07:55:28;4.90;99.90
22114;DHT22;11223;49.968;9.062;2023-11-18T07:57:54;4.90;99.90
22114;DHT22;11223;49.968;9.062;2023-11-18T08:00:19;4.90;99.90
22114;DHT22;11223;49.968;9.062;2023-11-18T08:02:45;4.90;99.90
22114;DHT22;11223;49.968;9.062;2023-11-18T08:05:10;5.00;99.90
22114;DHT22;11223;49.968;9.062;2023-11-18T08:07:40;5.00;99.90
22114;DHT22;11223;49.968;9.062;2023-11-18T08:10:06;5.10;99.90
22114;DHT22;11223;49.968;9.062;2023-11-18T08:12:32;5.10;99.90
22114;DHT22;11223;49.968;9.062;2023-11-18T08:14:59;5.20;99.90
22114;DHT22;11223;49.968;9.062;2023-11-18T08:17:25;5.20;99.90
22114;DHT22;11223;49.968;9.062;2023-11-18T08:19:51;5.20;99.90
22114;DHT22;11223;49.968;9.062;2023-11-18T08:22:17;5.30;99.90
22114;DHT22;11223;49.968;9.062;2023-11-18T08:24:44;5.40;99.90
22114;DHT22;11223;49.968;9.062;2023-11-18T08:27:10;5.40;99.90
22114;DHT22;11223;49.968;9.062;2023-11-18T08:29:36;5.50;99.90
22114;DHT22;11223;49.968;9.062;2023-11-18T08:32:03;5.60;99.90
22114;DHT22;11223;49.968;9.062;2023-11-18T08:34:29;5.70;99.90
22114;DHT22;11223;49.968;9.062;2023-11-18T08:36:54;5.70;99.90
22114;DHT22;11223;49.968;9.062;2023-11-18T08:39:20;5.80;99.90
22114;DHT22;11223;49.968;9.062;2023-11-18T08:41:46;5.90;99.90
22114;DHT22;11223;49.968;9.062;2023-11-18T08:44:11;5.90;99.90
22114;DHT22;11223;49.968;9.062;2023-11-18T08:46:38;6.00;99.90
22114;DHT22;11223;49.968;9.062;2023-11-18T08:49:04;6.00;99.90
22114;DHT22;11223;49.968;9.062;2023-11-18T08:51:39;6.10;99.90
22114;DHT22;11223;49.968;9.062;2023-11-18T08:54:07;6.10;99.90
22114;DHT22;11223;49.968;9.062;2023-11-18T08:56:53;6.20;99.90
22114;DHT22;11223;49.968;9.062;2023-11-18T08:59:20;6.30;99.90
22114;DHT22;11223;49.968;9.062;2023-11-18T09:01:53;6.40;99.90
22114;DHT22;11223;49.968;9.062;2023-11-18T09:04:24;6.50;99.90
22114;DHT22;11223;49.968;9.062;2023-11-18T09:06:50;6.50;99.90
22114;DHT22;11223;49.968;9.062;2023-11-18T09:09:22;6.50;99.90
22114;DHT22;11223;49.968;9.062;2023-11-18T09:11:53;6.60;99.90
22114;DHT22;11223;49.968;9.062;2023-11-18T09:14:19;6.70;99.90
22114;DHT22;11223;49.968;9.062;2023-11-18T09:16:45;6.90;99.90
22114;DHT22;11223;49.968;9.062;2023-11-18T09:19:10;7.00;99.90
22114;DHT22;11223;49.968;9.062;2023-11-18T09:21:36;7.00;99.90
22114;DHT22;11223;49.968;9.062;2023-11-18T09:24:01;7.10;99.90
22114;DHT22;11223;49.968;9.062;2023-11-18T09:26:33;7.20;99.90
22114;DHT22;11223;49.968;9.062;2023-11-18T09:28:58;7.30;99.90
22114;DHT22;11223;49.968;9.062;2023-11-18T09:31:26;7.40;99.90
22114;DHT22;11223;49.968;9.062;2023-11-18T09:33:52;7.50;99.90
22114;DHT22;11223;49.968;9.062;2023-11-18T09:36:18;7.50;99.90
22114;DHT22;11223;49.968;9.062;2023-11-18T09:38:44;7.50;99.90
22114;DHT22;11223;49.968;9.062;2023-11-18T09:41:13;7.40;99.90
22114;DHT22;11223;49.968;9.062;2023-11-18T09:43:42;7.40;99.90
22114;DHT22;11223;49.968;9.062;2023-11-18T09:46:11;7.40;99.90
22114;DHT22;11223;49.968;9.062;2023-11-18T09:48:49;7.40;99.90
22114;DHT22;11223;49.968;9.062;2023-11-18T09:51:28;7.40;99.90
22114;DHT22;11223;49.968;9.062;2023-11-18T09:53:59;7.40;99.90
22114;DHT22;11223;49.968;9.062;2023-11-18T09:59:08;7.40;99.90
22114;DHT22;11223;49.968;9.062;2023-11-18T10:01:41;7.40;99.90
22114;DHT22;11223;49.968;9.062;2023-11-18T10:04:08;7.50;99.90
22114;DHT22;11223;49.968;9.062;2023-11-18T10:06:34;7.60;99.90
22114;DHT22;11223;49.968;9.062;2023-11-18T10:09:01;7.60;99.90
22114;DHT22;11223;49.968;9.062;2023-11-18T10:11:40;7.70;99.90
22114;DHT22;11223;49.968;9.062;2023-11-18T10:14:06;7.70;99.90
22114;DHT22;11223;49.968;9.062;2023-11-18T10:16:33;7.80;99.90
22114;DHT22;11223;49.968;9.062;2023-11-18T10:18:59;7.90;99.90
22114;DHT22;11223;49.968;9.062;2023-11-18T10:21:35;7.90;99.90
22114;DHT22;11223;49.968;9.062;2023-11-18T10:24:05;8.00;99.90
22114;DHT22;11223;49.968;9.062;2023-11-18T10:26:35;8.00;99.90
22114;DHT22;11223;49.968;9.062;2023-11-18T10:29:03;8.00;99.90
22114;DHT22;11223;49.968;9.062;2023-11-18T10:31:34;8.10;99.90
22114;DHT22;11223;49.968;9.062;2023-11-18T10:34:03;8.10;99.90
22114;DHT22;11223;49.968;9.062;2023-11-18T10:36:29;8.20;99.90
22114;DHT22;11223;49.968;9.062;2023-11-18T10:38:56;8.20;99.90
22114;DHT22;11223;49.968;9.062;2023-11-18T10:41:22;8.30;99.90
22114;DHT22;11223;49.968;9.062;2023-11-18T10:43:48;8.30;99.90
22114;DHT22;11223;49.968;9.062;2023-11-18T10:46:14;8.30;99.90
22114;DHT22;11223;49.968;9.062;2023-11-18T10:48:41;8.30;99.90
22114;DHT22;11223;49.968;9.062;2023-11-18T10:51:07;8.30;99.90
22114;DHT22;11223;49.968;9.062;2023-11-18T10:53:33;8.30;99.90
22114;DHT22;11223;49.968;9.062;2023-11-18T10:56:04;8.30;99.90
22114;DHT22;11223;49.968;9.062;2023-11-18T10:58:37;8.30;99.90
22114;DHT22;11223;49.968;9.062;2023-11-18T11:01:06;8.30;99.90
22114;DHT22;11223;49.968;9.062;2023-11-18T11:03:52;8.30;99.90
22114;DHT22;11223;49.968;9.062;2023-11-18T11:06:19;8.20;99.90
22114;DHT22;11223;49.968;9.062;2023-11-18T11:08:45;8.20;99.90
22114;DHT22;11223;49.968;9.062;2023-11-18T11:11:11;8.20;99.90
22114;DHT22;11223;49.968;9.062;2023-11-18T11:13:41;8.20;99.90
22114;DHT22;11223;49.968;9.062;2023-11-18T11:16:07;8.30;99.90
22114;DHT22;11223;49.968;9.062;2023-11-18T11:18:35;8.30;99.90
22114;DHT22;11223;49.968;9.062;2023-11-18T11:21:12;8.30;99.90
22114;DHT22;11223;49.968;9.062;2023-11-18T11:23:53;8.30;99.90
22114;DHT22;11223;49.968;9.062;2023-11-18T11:26:45;8.30;99.90
22114;DHT22;11223;49.968;9.062;2023-11-18T11:29:29;8.30;99.90
22114;DHT22;11223;49.968;9.062;2023-11-18T11:32:01;8.30;99.90
22114;DHT22;11223;49.968;9.062;2023-11-18T11:34:28;8.30;99.90
22114;DHT22;11223;49.968;9.062;2023-11-18T11:36:56;8.30;99.90
22114;DHT22;11223;49.968;9.062;2023-11-18T11:39:24;8.30;99.90
22114;DHT22;11223;49.968;9.062;2023-11-18T11:41:55;8.30;99.90
22114;DHT22;11223;49.968;9.062;2023-11-18T11:44:22;8.30;99.90
22114;DHT22;11223;49.968;9.062;2023-11-18T11:46:53;8.30;99.90
22114;DHT22;11223;49.968;9.062;2023-11-18T11:49:21;8.20;99.90
22114;DHT22;11223;49.968;9.062;2023-11-18T11:52:03;8.30;99.90
22114;DHT22;11223;49.968;9.062;2023-11-18T11:54:33;8.30;99.90
22114;DHT22;11223;49.968;9.062;2023-11-18T11:57:02;8.20;99.90
22114;DHT22;11223;49.968;9.062;2023-11-18T11:59:34;8.30;99.90
22114;DHT22;11223;49.968;9.062;2023-11-18T12:02:02;8.30;99.90
22114;DHT22;11223;49.968;9.062;2023-11-18T12:04:33;8.30;99.90
22114;DHT22;11223;49.968;9.062;2023-11-18T12:06:59;8.30;99.90
22114;DHT22;11223;49.968;9.062;2023-11-18T12:09:31;8.30;99.90
22114;DHT22;11223;49.968;9.062;2023-11-18T12:12:02;8.40;99.90
22114;DHT22;11223;49.968;9.062;2023-11-18T12:14:30;8.40;99.90
22114;DHT22;11223;49.968;9.062;2023-11-18T12:16:58;8.40;99.90
22114;DHT22;11223;49.968;9.062;2023-11-18T12:19:35;8.50;99.90
22114;DHT22;11223;49.968;9.062;2023-11-18T12:22:24;8.50;99.90
22114;DHT22;11223;49.968;9.062;2023-11-18T12:35:21;8.50;99.90
22114;DHT22;11223;49.968;9.062;2023-11-18T12:37:59;8.50;99.90
22114;DHT22;11223;49.968;9.062;2023-11-18T12:43:16;8.50;99.90
22114;DHT22;11223;49.968;9.062;2023-11-18T12:45:50;8.50;99.90
22114;DHT22;11223;49.968;9.062;2023-11-18T12:48:25;8.50;99.90
22114;DHT22;11223;49.968;9.062;2023-11-18T12:50:53;8.50;99.90
22114;DHT22;11223;49.968;9.062;2023-11-18T12:53:18;8.50;99.90
22114;DHT22;11223;49.968;9.062;2023-11-18T12:55:44;8.50;99.90
22114;DHT22;11223;49.968;9.062;2023-11-18T12:58:10;8.50;99.90
22114;DHT22;11223;49.968;9.062;2023-11-18T13:00:39;8.40;99.90
22114;DHT22;11223;49.968;9.062;2023-11-18T13:03:04;8.40;99.90
22114;DHT22;11223;49.968;9.062;2023-11-18T13:05:30;8.40;99.90
22114;DHT22;11223;49.968;9.062;2023-11-18T13:07:56;8.40;99.90
22114;DHT22;11223;49.968;9.062;2023-11-18T13:10:23;8.40;99.90
22114;DHT22;11223;49.968;9.062;2023-11-18T13:12:49;8.40;99.90
22114;DHT22;11223;49.968;9.062;2023-11-18T13:15:15;8.30;99.90
22114;DHT22;11223;49.968;9.062;2023-11-18T13:17:56;8.30;99.90
22114;DHT22;11223;49.968;9.062;2023-11-18T13:20:22;8.30;99.90
22114;DHT22;11223;49.968;9.062;2023-11-18T13:22:50;8.30;99.90
22114;DHT22;11223;49.968;9.062;2023-11-18T13:25:16;8.40;99.90
22114;DHT22;11223;49.968;9.062;2023-11-18T13:27:42;8.40;99.90
22114;DHT22;11223;49.968;9.062;2023-11-18T13:30:08;8.30;99.90
22114;DHT22;11223;49.968;9.062;2023-11-18T13:32:40;8.30;99.90
22114;DHT22;11223;49.968;9.062;2023-11-18T13:35:06;8.30;99.90
22114;DHT22;11223;49.968;9.062;2023-11-18T13:37:32;8.30;99.90
22114;DHT22;11223;49.968;9.062;2023-11-18T13:39:58;8.30;99.90
22114;DHT22;11223;49.968;9.062;2023-11-18T13:42:24;8.30;99.90
22114;DHT22;11223;49.968;9.062;2023-11-18T13:44:53;8.30;99.90
22114;DHT22;11223;49.968;9.062;2023-11-18T13:47:22;8.30;99.90
22114;DHT22;11223;49.968;9.062;2023-11-18T13:49:53;8.30;99.90
22114;DHT22;11223;49.968;9.062;2023-11-18T13:52:19;8.20;99.90
22114;DHT22;11223;49.968;9.062;2023-11-18T13:54:45;8.10;99.90
22114;DHT22;11223;49.968;9.062;2023-11-18T13:57:11;8.20;99.90
22114;DHT22;11223;49.968;9.062;2023-11-18T13:59:37;8.10;99.90
22114;DHT22;11223;49.968;9.062;2023-11-18T14:02:04;8.10;99.90
22114;DHT22;11223;49.968;9.062;2023-11-18T14:04:30;8.10;99.90
22114;DHT22;11223;49.968;9.062;2023-11-18T14:06:59;8.10;99.90
22114;DHT22;11223;49.968;9.062;2023-11-18T14:09:27;8.10;99.90
22114;DHT22;11223;49.968;9.062;2023-11-18T14:11:55;8.10;99.90
22114;DHT22;11223;49.968;9.062;2023-11-18T14:14:22;8.00;99.90
22114;DHT22;11223;49.968;9.062;2023-11-18T14:16:48;8.00;99.90
22114;DHT22;11223;49.968;9.062;2023-11-18T14:19:14;7.90;99.90
22114;DHT22;11223;49.968;9.062;2023-11-18T14:21:40;7.90;99.90
22114;DHT22;11223;49.968;9.062;2023-11-18T14:24:07;7.90;99.90
22114;DHT22;11223;49.968;9.062;2023-11-18T14:26:33;7.90;99.90
22114;DHT22;11223;49.968;9.062;2023-11-18T14:28:58;7.90;99.90
22114;DHT22;11223;49.968;9.062;2023-11-18T14:31:25;7.90;99.90
22114;DHT22;11223;49.968;9.062;2023-11-18T14:33:51;7.80;99.90
22114;DHT22;11223;49.968;9.062;2023-11-18T14:36:17;7.80;99.90
22114;DHT22;11223;49.968;9.062;2023-11-18T14:38:42;7.80;99.90
22114;DHT22;11223;49.968;9.062;2023-11-18T14:41:10;7.70;99.90
22114;DHT22;11223;49.968;9.062;2023-11-18T14:43:35;7.70;99.90
22114;DHT22;11223;49.968;9.062;2023-11-18T14:46:01;7.70;99.90
22114;DHT22;11223;49.968;9.062;2023-11-18T14:48:28;7.70;99.90
22114;DHT22;11223;49.968;9.062;2023-11-18T14:50:54;7.60;99.90
22114;DHT22;11223;49.968;9.062;2023-11-18T14:53:22;7.60;99.90
22114;DHT22;11223;49.968;9.062;2023-11-18T14:55:47;7.60;99.90
22114;DHT22;11223;49.968;9.062;2023-11-18T14:58:13;7.60;99.90
22114;DHT22;11223;49.968;9.062;2023-11-18T15:00:39;7.60;99.90
22114;DHT22;11223;49.968;9.062;2023-11-18T15:03:04;7.60;99.90
22114;DHT22;11223;49.968;9.062;2023-11-18T15:05:31;7.60;99.90
22114;DHT22;11223;49.968;9.062;2023-11-18T15:07:57;7.60;99.90
22114;DHT22;11223;49.968;9.062;2023-11-18T15:10:24;7.60;99.90
22114;DHT22;11223;49.968;9.062;2023-11-18T15:12:51;7.50;99.90
22114;DHT22;11223;49.968;9.062;2023-11-18T15:17:46;7.50;99.90
22114;DHT22;11223;49.968;9.062;2023-11-18T15:20:12;7.50;99.90
22114;DHT22;11223;49.968;9.062;2023-11-18T15:22:38;7.40;99.90
22114;DHT22;11223;49.968;9.062;2023-11-18T15:25:03;7.40;99.90
22114;DHT22;11223;49.968;9.062;2023-11-18T15:27:29;7.40;99.90
22114;DHT22;11223;49.968;9.062;2023-11-18T15:29:58;7.40;99.90
22114;DHT22;11223;49.968;9.062;2023-11-18T15:32:23;7.50;99.90
22114;DHT22;11223;49.968;9.062;2023-11-18T15:34:51;7.50;99.90
22114;DHT22;11223;49.968;9.062;2023-11-18T15:37:18;7.50;99.90
22114;DHT22;11223;49.968;9.062;2023-11-18T15:39:43;7.50;99.90
22114;DHT22;11223;49.968;9.062;2023-11-18T15:42:09;7.40;99.90
22114;DHT22;11223;49.968;9.062;2023-11-18T15:44:39;7.40;99.90
22114;DHT22;11223;49.968;9.062;2023-11-18T15:47:05;7.40;99.90
22114;DHT22;11223;49.968;9.062;2023-11-18T15:49:30;7.40;99.90
22114;DHT22;11223;49.968;9.062;2023-11-18T15:51:56;7.50;99.90
22114;DHT22;11223;49.968;9.062;2023-11-18T15:54:21;7.40;99.90
22114;DHT22;11223;49.968;9.062;2023-11-18T15:56:47;7.40;99.90
22114;DHT22;11223;49.968;9.062;2023-11-18T15:59:12;7.40;99.90
22114;DHT22;11223;49.968;9.062;2023-11-18T16:01:38;7.40;99.90
22114;DHT22;11223;49.968;9.062;2023-11-18T16:04:03;7.40;99.90
22114;DHT22;11223;49.968;9.062;2023-11-18T16:06:29;7.40;99.90
22114;DHT22;11223;49.968;9.062;2023-11-18T16:08:55;7.40;99.90
22114;DHT22;11223;49.968;9.062;2023-11-18T16:11:20;7.40;99.90